Saint Petersburg, Russia
Current Conditions -  °F | °C
As of 11:00 AM on Thursday 23 Oct 2014 (Local Time) from ULLI Reporting Station
Broken Clouds Broken Clouds  
Wind Chill: 25°   Ceiling: 20000
Heat Index: 25°   Visibility: 6mi
Dew Point: 19°   Wind: 2mph
Humidity: 80%   Direction: 110°ESE
Pressure: 30.56"   Gusts: NA
Location:  59.93°N, 30.32°E
Report Text: ULLI 230800Z 11001MPS 9999 SCT036 BKN200 M04/M07 Q1035 6045025010490550 NOSIG
Loading
Personal Weather Stations






























Interactive Weather Map New forecast layout! Learn more

10-Day Weather Forecast

Advertisements
Track Severe Weather on mobile